Time;durP1;ratioP1;P1;durP2;ratioP2;P2;SDS_P1;SDS_P2;PMS_P1;PMS_P2;Temp;Humidity;BMP_temperature;BMP_pressure;BME280_temperature;BME280_humidity;BME280_pressure;Samples;Min_cycle;Max_cycle;Signal;HPM_P1;HPM_P2
2021/09/24 00:01:20;;;;;;;;;;;;;;;10.32;93.53;101364.19;1721981;83;20140;-83
2021/09/24 00:03:47;;;;;;;;;;;;;;;10.29;93.11;101357.88;1711682;82;21140;-81
2021/09/24 00:06:13;;;;;;;;;;;;;;;10.29;92.86;101360.92;1716495;83;20148;-81
2021/09/24 00:08:41;;;;;;;;;;;;;;;10.27;92.70;101361.48;1709377;83;20196;-85
2021/09/24 00:11:09;;;;;;;;;;;;;;;10.22;92.40;101360.41;1715040;82;20606;-83
2021/09/24 00:13:36;;;;;;;;;;;;;;;10.20;92.20;101354.94;1710061;83;20110;-82
2021/09/24 00:16:04;;;;;;;;;;;;;;;10.18;91.94;101351.11;1710747;82;21191;-84
2021/09/24 00:18:31;;;;;;;;;;;;;;;10.16;91.38;101362.49;1719510;82;20128;-83
2021/09/24 00:20:59;;;;;;;;;;;;;;;10.13;90.59;101364.77;1708530;83;20124;-84
2021/09/24 00:23:27;;;;;;;;;;;;;;;10.10;90.00;101372.70;1730152;83;20432;-83
2021/09/24 00:25:54;;;;;;;;;;;;;;;10.05;89.76;101373.42;1729853;83;20438;-83
2021/09/24 00:28:20;;;;;;;;;;;;;;;10.02;89.58;101374.84;1727447;83;21159;-82
2021/09/24 00:30:48;;;;;;;;;;;;;;;9.98;89.46;101367.72;1725672;82;20453;-83
2021/09/24 00:33:14;;;;;;;;;;;;;;;9.96;89.47;101367.39;1731117;82;20084;-82
2021/09/24 00:35:41;;;;;;;;;;;;;;;9.93;89.40;101364.95;1725377;82;20177;-82
2021/09/24 00:38:07;;;;;;;;;;;;;;;9.92;89.39;101364.60;1729733;83;20148;-83
2021/09/24 00:40:36;;;;;;;;;;;;;;;9.90;89.30;101362.07;1724611;83;21143;-83
2021/09/24 00:43:03;;;;;;;;;;;;;;;9.90;89.02;101365.13;1723384;82;20142;-83
2021/09/24 00:45:32;;;;;;;;;;;;;;;9.87;88.82;101362.69;1723472;83;20097;-83
2021/09/24 00:48:00;;;;;;;;;;;;;;;9.84;88.58;101357.66;1716863;83;20452;-84
2021/09/24 00:50:26;;;;;;;;;;;;;;;9.81;88.63;101357.83;1693571;83;20119;-82
2021/09/24 00:52:55;;;;;;;;;;;;;;;9.80;88.68;101361.32;1705419;83;20106;-86
2021/09/24 00:55:23;;;;;;;;;;;;;;;9.79;88.58;101357.08;1706638;83;20447;-78
2021/09/24 00:57:51;;;;;;;;;;;;;;;9.78;88.64;101354.09;1710465;83;20136;-84
2021/09/24 01:00:17;;;;;;;;;;;;;;;9.76;88.76;101347.71;1725844;83;20439;-84
2021/09/24 01:02:44;;;;;;;;;;;;;;;9.73;89.07;101341.36;1729552;83;20144;-84
2021/09/24 01:05:10;;;;;;;;;;;;;;;9.73;89.33;101338.77;1729808;83;21123;-84
2021/09/24 01:07:41;;;;;;;;;;;;;;;9.75;89.45;101343.89;1729020;83;20891;-83
2021/09/24 01:10:11;;;;;;;;;;;;;;;9.77;89.46;101351.95;1723147;83;20117;-82
2021/09/24 01:12:37;;;;;;;;;;;;;;;9.77;89.37;101349.81;1728023;82;20101;-82
2021/09/24 01:15:06;;;;;;;;;;;;;;;9.78;89.33;101352.80;1731202;83;20089;-84
2021/09/24 01:17:33;;;;;;;;;;;;;;;9.77;89.18;101349.81;1720019;82;21103;-82
2021/09/24 01:20:00;;;;;;;;;;;;;;;9.76;88.98;101346.88;1720723;83;20100;-84
2021/09/24 01:22:26;;;;;;;;;;;;;;;9.75;88.99;101347.78;1729468;83;20423;-81
2021/09/24 01:24:54;;;;;;;;;;;;;;;9.74;88.77;101348.69;1712987;82;20153;-83
2021/09/24 01:27:21;;;;;;;;;;;;;;;9.72;88.71;101356.55;1711963;83;20139;-82
2021/09/24 01:29:51;;;;;;;;;;;;;;;9.72;88.77;101350.08;1727310;83;21163;-82
2021/09/24 01:32:19;;;;;;;;;;;;;;;9.71;88.76;101349.69;1727500;82;20143;-82
2021/09/24 01:34:46;;;;;;;;;;;;;;;9.71;89.03;101348.84;1725498;83;20141;-81
2021/09/24 01:37:15;;;;;;;;;;;;;;;9.69;89.03;101350.69;1729485;83;20105;-84
2021/09/24 01:39:43;;;;;;;;;;;;;;;9.67;89.09;101359.01;1729463;83;20183;-83
2021/09/24 01:42:10;;;;;;;;;;;;;;;9.64;89.06;101354.80;1720683;82;22002;-84
2021/09/24 01:44:36;;;;;;;;;;;;;;;9.62;89.26;101363.56;1728847;83;20109;-82
2021/09/24 01:47:03;;;;;;;;;;;;;;;9.59;89.33;101359.39;1714475;82;20435;-81
2021/09/24 01:49:30;;;;;;;;;;;;;;;9.58;89.40;101361.14;1719701;82;20651;-83
2021/09/24 01:51:56;;;;;;;;;;;;;;;9.58;89.45;101351.22;1729521;83;20117;-81
2021/09/24 01:54:24;;;;;;;;;;;;;;;9.55;89.52;101343.16;1709106;83;21150;-82
2021/09/24 01:56:52;;;;;;;;;;;;;;;9.56;89.66;101337.07;1713774;83;20077;-84
2021/09/24 01:59:18;;;;;;;;;;;;;;;9.55;89.69;101315.11;1724408;82;20510;-84
2021/09/24 02:01:45;;;;;;;;;;;;;;;9.53;89.67;101300.95;1729431;83;20157;-83
2021/09/24 02:04:15;;;;;;;;;;;;;;;9.50;89.69;101293.34;1729758;83;20560;-83
2021/09/24 02:06:42;;;;;;;;;;;;;;;9.47;89.83;101290.06;1729434;82;21855;-82
2021/09/24 02:09:09;;;;;;;;;;;;;;;9.39;90.00;101289.15;1729709;83;20114;-81
2021/09/24 02:11:37;;;;;;;;;;;;;;;9.35;90.28;101279.85;1717026;83;20446;-82
2021/09/24 02:14:04;;;;;;;;;;;;;;;9.34;90.72;101270.88;1729259;83;20105;-83
2021/09/24 02:16:31;;;;;;;;;;;;;;;9.36;91.09;101277.66;1716309;83;20132;-81
2021/09/24 02:18:57;;;;;;;;;;;;;;;9.37;91.44;101269.43;1727624;83;21153;-85
2021/09/24 02:21:28;;;;;;;;;;;;;;;9.36;91.75;101267.30;1729588;83;20088;-83
2021/09/24 02:23:56;;;;;;;;;;;;;;;9.39;91.94;101269.72;1726934;83;20093;-80
2021/09/24 02:26:22;;;;;;;;;;;;;;;9.41;92.30;101273.06;1729677;83;20152;-84
2021/09/24 02:28:48;;;;;;;;;;;;;;;9.48;92.78;101276.17;1725807;83;20120;-80
2021/09/24 02:31:14;;;;;;;;;;;;;;;9.51;92.74;101269.53;1719051;82;21146;-80
2021/09/24 02:33:44;;;;;;;;;;;;;;;9.54;92.68;101266.33;1729402;83;20211;-81
2021/09/24 02:36:11;;;;;;;;;;;;;;;9.60;92.54;101259.17;1718062;82;20144;-82
2021/09/24 02:38:37;;;;;;;;;;;;;;;9.64;92.36;101252.89;1727297;82;20077;-81
2021/09/24 02:41:06;;;;;;;;;;;;;;;9.68;92.25;101250.52;1727267;83;20096;-81
2021/09/24 02:43:36;;;;;;;;;;;;;;;9.70;92.14;101247.41;1729158;83;21143;-86
2021/09/24 02:46:04;;;;;;;;;;;;;;;9.70;92.07;101239.16;1729532;83;20084;-81
2021/09/24 02:48:33;;;;;;;;;;;;;;;9.71;92.20;101228.33;1725160;83;20458;-79
2021/09/24 02:50:59;;;;;;;;;;;;;;;9.72;92.32;101238.63;1730132;83;20148;-83
2021/09/24 02:53:27;;;;;;;;;;;;;;;9.73;92.58;101233.80;1729594;82;20155;-82
2021/09/24 02:55:55;;;;;;;;;;;;;;;9.75;92.78;101225.96;1718973;83;22017;-80
2021/09/24 02:58:23;;;;;;;;;;;;;;;9.79;92.91;101225.73;1701304;84;20134;-82
2021/09/24 03:00:50;;;;;;;;;;;;;;;9.84;92.67;101229.35;1715618;81;20100;-85
2021/09/24 03:03:18;;;;;;;;;;;;;;;9.89;92.31;101227.37;1728531;81;20105;-76
2021/09/24 03:05:45;;;;;;;;;;;;;;;9.93;91.56;101223.66;1729250;83;20144;-80
2021/09/24 03:08:13;;;;;;;;;;;;;;;10.00;90.62;101214.64;1717536;83;20208;-84
2021/09/24 03:10:41;;;;;;;;;;;;;;;10.08;89.63;101200.32;1720880;83;20451;-86
2021/09/24 03:13:09;;;;;;;;;;;;;;;10.15;89.46;101197.45;1720861;83;20160;-81
2021/09/24 03:15:36;;;;;;;;;;;;;;;10.18;89.51;101201.17;1726016;82;20077;-82
2021/09/24 03:18:03;;;;;;;;;;;;;;;10.20;89.76;101200.61;1710626;83;20096;-82
2021/09/24 03:20:30;;;;;;;;;;;;;;;10.21;89.84;101192.72;1729495;83;21167;-81
2021/09/24 03:22:56;;;;;;;;;;;;;;;10.22;90.04;101186.63;1731064;83;20120;-87
2021/09/24 03:25:23;;;;;;;;;;;;;;;10.25;90.25;101186.91;1732428;83;20121;-83
2021/09/24 03:27:51;;;;;;;;;;;;;;;10.22;91.00;101187.09;1732300;83;20108;-82
2021/09/24 03:30:17;;;;;;;;;;;;;;;10.22;91.33;101175.41;1711847;83;20170;-80
2021/09/24 03:32:45;;;;;;;;;;;;;;;10.22;91.46;101180.59;1732159;83;20117;-84
2021/09/24 03:35:14;;;;;;;;;;;;;;;10.23;91.42;101174.50;1700221;83;20102;-82
2021/09/24 03:37:41;;;;;;;;;;;;;;;10.24;91.29;101178.32;1721287;83;20084;-81
2021/09/24 03:40:09;;;;;;;;;;;;;;;10.22;91.02;101165.87;1729424;82;20188;-82
2021/09/24 03:42:35;;;;;;;;;;;;;;;10.18;90.64;101163.56;1671702;84;20162;-81
2021/09/24 03:45:03;;;;;;;;;;;;;;;10.14;90.37;101168.53;1670755;85;21117;-85
2021/09/24 03:47:30;;;;;;;;;;;;;;;10.14;89.96;101171.13;1660214;84;20105;-85
2021/09/24 03:49:56;;;;;;;;;;;;;;;10.14;89.31;101165.94;1668450;84;20112;-82
2021/09/24 03:52:22;;;;;;;;;;;;;;;10.13;88.44;101159.88;1668934;86;20591;-82
2021/09/24 03:54:51;;;;;;;;;;;;;;;10.15;88.24;101154.17;1669477;85;36463;-84
2021/09/24 03:57:17;;;;;;;;;;;;;;;10.16;87.52;101147.23;1669564;85;21263;-83
2021/09/24 03:59:44;;;;;;;;;;;;;;;10.15;87.05;101150.28;1667393;86;20498;-82
2021/09/24 04:02:11;;;;;;;;;;;;;;;10.15;86.99;101146.39;1670549;84;20127;-84
2021/09/24 04:04:38;;;;;;;;;;;;;;;10.17;86.97;101144.56;1668662;84;20125;-84
2021/09/24 04:07:05;;;;;;;;;;;;;;;10.18;86.79;101148.81;1681659;84;20158;-83
2021/09/24 04:09:32;;;;;;;;;;;;;;;10.19;86.68;101147.90;1688783;85;21147;-82
2021/09/24 04:11:59;;;;;;;;;;;;;;;10.22;86.56;101146.42;1686413;84;20446;-84
2021/09/24 04:14:27;;;;;;;;;;;;;;;10.23;86.37;101135.59;1681967;84;20087;-81
2021/09/24 04:16:53;;;;;;;;;;;;;;;10.25;86.06;101124.20;1680059;85;20515;-82
2021/09/24 04:19:21;;;;;;;;;;;;;;;10.23;85.85;101118.28;1725837;82;20119;-87
2021/09/24 04:21:48;;;;;;;;;;;;;;;10.24;85.62;101117.37;1725911;83;21828;-82
2021/09/24 04:24:16;;;;;;;;;;;;;;;10.21;85.58;101107.14;1729579;83;20124;-83
2021/09/24 04:26:44;;;;;;;;;;;;;;;10.20;85.68;101096.87;1718155;83;20164;-84
2021/09/24 04:29:12;;;;;;;;;;;;;;;10.18;85.71;101089.16;1721356;83;20423;-84
2021/09/24 04:31:39;;;;;;;;;;;;;;;10.18;85.63;101081.87;1719224;82;20089;-84
2021/09/24 04:34:05;;;;;;;;;;;;;;;10.17;85.37;101073.25;1724731;82;21126;-77
2021/09/24 04:36:33;;;;;;;;;;;;;;;10.17;84.89;101069.36;1706820;83;20439;-81
2021/09/24 04:39:02;;;;;;;;;;;;;;;10.18;84.61;101061.13;1716994;83;20168;-85
2021/09/24 04:41:29;;;;;;;;;;;;;;;10.19;84.52;101059.72;1714291;83;20073;-78
2021/09/24 04:43:56;;;;;;;;;;;;;;;10.18;84.18;101068.41;1720374;82;20149;-82
2021/09/24 04:46:24;;;;;;;;;;;;;;;10.23;83.77;101080.67;1726980;83;21197;-82
2021/09/24 04:48:50;;;;;;;;;;;;;;;10.28;83.35;101073.90;1729422;83;20105;-85
2021/09/24 04:51:17;;;;;;;;;;;;;;;10.32;82.82;101074.95;1724277;82;20466;-79
2021/09/24 04:53:43;;;;;;;;;;;;;;;10.34;82.48;101070.48;1729477;83;20168;-80
2021/09/24 04:56:10;;;;;;;;;;;;;;;10.33;82.36;101058.92;1729682;83;20092;-81
2021/09/24 04:58:36;;;;;;;;;;;;;;;10.35;82.40;101057.91;1729434;81;21153;-81
2021/09/24 05:01:03;;;;;;;;;;;;;;;10.36;82.35;101060.87;1729507;83;20098;-81
2021/09/24 05:03:30;;;;;;;;;;;;;;;10.38;82.22;101054.28;1728315;81;20116;-83
2021/09/24 05:05:56;;;;;;;;;;;;;;;10.41;82.19;101060.13;1707791;83;20453;-80
2021/09/24 05:08:24;;;;;;;;;;;;;;;10.43;81.68;101062.16;1721621;83;20104;-81
2021/09/24 05:10:50;;;;;;;;;;;;;;;10.47;81.64;101058.92;1729128;82;21988;-80
2021/09/24 05:13:18;;;;;;;;;;;;;;;10.52;81.08;101053.86;1655293;85;20132;-82
2021/09/24 05:15:45;;;;;;;;;;;;;;;10.57;80.59;101057.45;1670864;84;20105;-78
2021/09/24 05:18:13;;;;;;;;;;;;;;;10.65;78.49;101049.23;1670290;84;20092;-79
2021/09/24 05:20:41;;;;;;;;;;;;;;;10.75;77.40;101046.00;1659691;84;20168;-78
2021/09/24 05:23:09;;;;;;;;;;;;;;;10.88;75.01;101043.00;1659234;84;20426;-83
2021/09/24 05:25:37;;;;;;;;;;;;;;;11.04;74.64;101038.53;1664670;84;20125;-77
2021/09/24 05:28:03;;;;;;;;;;;;;;;11.15;72.79;101037.41;1674875;83;20127;-79
2021/09/24 05:30:30;;;;;;;;;;;;;;;11.24;71.58;101036.00;1667604;84;20167;-80
2021/09/24 05:32:58;;;;;;;;;;;;;;;11.31;71.42;101043.78;1679363;84;20592;-79
2021/09/24 05:35:26;;;;;;;;;;;;;;;11.34;71.11;101045.34;1689601;85;21213;-79
2021/09/24 05:37:52;;;;;;;;;;;;;;;11.35;70.76;101041.83;1688194;85;20193;-81
2021/09/24 05:40:18;;;;;;;;;;;;;;;11.38;71.00;101041.63;1689686;85;20179;-79
2021/09/24 05:42:46;;;;;;;;;;;;;;;11.37;70.10;101052.95;1676155;84;20160;-75
2021/09/24 05:45:14;;;;;;;;;;;;;;;11.36;70.34;101055.20;1690494;84;20087;-78
2021/09/24 05:47:42;;;;;;;;;;;;;;;11.38;70.17;101074.11;1688774;85;21175;-80
2021/09/24 05:50:13;;;;;;;;;;;;;;;11.39;69.91;101094.78;1691242;84;20103;-80
2021/09/24 05:52:41;;;;;;;;;;;;;;;11.41;68.99;101098.61;1688831;84;20087;-79
2021/09/24 05:55:08;;;;;;;;;;;;;;;11.46;69.22;101106.47;1674896;84;20480;-81
2021/09/24 05:57:35;;;;;;;;;;;;;;;11.50;69.63;101109.27;1692628;82;20123;-79
2021/09/24 06:00:05;;;;;;;;;;;;;;;11.58;69.57;101110.90;1696595;83;20116;-81
2021/09/24 06:02:34;;;;;;;;;;;;;;;11.64;68.77;101104.50;1690147;83;20147;-77
2021/09/24 06:05:01;;;;;;;;;;;;;;;11.72;69.02;101117.87;1689472;83;20171;-84
2021/09/24 06:07:29;;;;;;;;;;;;;;;11.77;68.67;101118.89;1686250;84;20134;-81
2021/09/24 06:09:59;;;;;;;;;;;;;;;11.85;69.00;101117.45;1708275;83;20105;-86
2021/09/24 06:12:27;;;;;;;;;;;;;;;11.94;68.54;101125.13;1709808;83;20090;-87
2021/09/24 06:15:00;;;;;;;;;;;;;;;12.03;67.87;101128.46;1714972;83;20101;-89
2021/09/24 06:17:29;;;;;;;;;;;;;;;12.07;67.83;101136.41;1716133;83;20455;-84
2021/09/24 06:19:58;;;;;;;;;;;;;;;12.10;67.99;101129.70;1698981;83;20147;-78
2021/09/24 06:22:29;;;;;;;;;;;;;;;12.09;67.27;101118.95;1713329;83;20145;-82
2021/09/24 06:24:58;;;;;;;;;;;;;;;12.03;67.32;101120.66;1749004;81;21978;-83
2021/09/24 06:27:25;;;;;;;;;;;;;;;12.00;67.42;101113.02;1734917;81;20085;-81
2021/09/24 06:29:53;;;;;;;;;;;;;;;11.99;67.98;101123.08;1728318;81;20168;-84
2021/09/24 06:32:23;;;;;;;;;;;;;;;11.98;68.23;101128.75;1742948;81;20229;-81
2021/09/24 06:34:52;;;;;;;;;;;;;;;12.00;67.91;101127.33;1754616;81;20180;-87
2021/09/24 06:37:20;;;;;;;;;;;;;;;12.01;68.16;101132.91;1759002;81;21127;-77
2021/09/24 06:39:46;;;;;;;;;;;;;;;12.06;67.66;101138.17;1761506;81;20185;-85
2021/09/24 06:42:13;;;;;;;;;;;;;;;12.09;68.01;101150.98;1757611;81;20094;-76
2021/09/24 06:44:41;;;;;;;;;;;;;;;12.18;67.93;101145.22;1747982;82;20099;-87
2021/09/24 06:47:12;;;;;;;;;;;;;;;12.28;68.09;101142.00;1720470;82;20501;-87
2021/09/24 06:49:40;;;;;;;;;;;;;;;12.39;68.02;101140.36;1729480;83;22014;-86
2021/09/24 06:52:08;;;;;;;;;;;;;;;12.51;67.70;101134.33;1723498;82;20212;-86
2021/09/24 06:54:38;;;;;;;;;;;;;;;12.63;67.04;101143.12;1728924;81;20446;-81
2021/09/24 06:57:07;;;;;;;;;;;;;;;12.72;66.68;101149.01;1735398;81;20095;-82
2021/09/24 06:59:35;;;;;;;;;;;;;;;12.80;66.53;101151.08;1728737;81;20088;-84
2021/09/24 07:02:01;;;;;;;;;;;;;;;12.90;66.28;101148.22;1730906;82;21150;-83
2021/09/24 07:04:28;;;;;;;;;;;;;;;13.00;66.08;101133.17;1749620;82;20130;-77
2021/09/24 07:06:55;;;;;;;;;;;;;;;13.12;65.54;101128.91;1714964;82;20119;-78
2021/09/24 07:09:21;;;;;;;;;;;;;;;13.18;65.01;101109.77;1732336;81;20151;-83
2021/09/24 07:11:49;;;;;;;;;;;;;;;13.26;65.31;101113.16;1743607;81;20146;-83
2021/09/24 07:14:19;;;;;;;;;;;;;;;13.36;65.04;101110.74;1701095;83;21149;-86
2021/09/24 07:16:52;;;;;;;;;;;;;;;13.51;64.95;101117.01;1734336;81;20164;-84
2021/09/24 07:19:18;;;;;;;;;;;;;;;13.69;64.26;101099.20;1747769;82;20083;-80
2021/09/24 07:21:45;;;;;;;;;;;;;;;13.82;63.19;101086.10;1749750;82;20691;-80
2021/09/24 07:24:12;;;;;;;;;;;;;;;13.86;62.74;101072.73;1747519;82;20649;-85
2021/09/24 07:26:41;;;;;;;;;;;;;;;13.89;62.66;101077.73;1707218;83;21507;-79
2021/09/24 07:29:09;;;;;;;;;;;;;;;13.90;62.45;101081.17;1709535;83;20448;-79
2021/09/24 07:31:36;;;;;;;;;;;;;;;13.86;62.23;101083.17;1721716;83;20129;-77
2021/09/24 07:34:02;;;;;;;;;;;;;;;13.81;62.39;101041.42;1729149;81;20227;-81
2021/09/24 07:36:30;;;;;;;;;;;;;;;13.79;63.01;101016.27;1728260;82;20100;-85
2021/09/24 07:38:57;;;;;;;;;;;;;;;13.77;62.38;101032.52;1724214;83;21158;-76
2021/09/24 07:41:25;;;;;;;;;;;;;;;13.77;62.52;101047.33;1729151;81;20121;-77
2021/09/24 07:43:53;;;;;;;;;;;;;;;13.75;62.37;101047.42;1738376;81;20157;-79
2021/09/24 07:46:22;;;;;;;;;;;;;;;13.74;62.77;101050.16;1720605;81;20104;-80
2021/09/24 07:48:50;;;;;;;;;;;;;;;13.74;63.18;101053.61;1740126;81;20190;-76
2021/09/24 07:51:19;;;;;;;;;;;;;;;13.75;63.54;101029.16;1754521;81;21130;-83
2021/09/24 07:53:49;;;;;;;;;;;;;;;13.77;62.87;101039.50;1728681;81;20206;-83
2021/09/24 07:56:16;;;;;;;;;;;;;;;13.79;62.59;101029.31;1750495;81;20209;-80
2021/09/24 07:58:44;;;;;;;;;;;;;;;13.86;61.97;101024.94;1746643;80;20324;-86
2021/09/24 08:01:10;;;;;;;;;;;;;;;13.91;60.68;101041.91;1731528;81;20132;-82
2021/09/24 08:03:40;;;;;;;;;;;;;;;13.95;60.32;101038.14;1690679;83;21158;-81
2021/09/24 08:06:09;;;;;;;;;;;;;;;13.99;60.33;101014.80;1753593;80;20090;-77
2021/09/24 08:08:36;;;;;;;;;;;;;;;14.03;59.39;101012.80;1752757;81;20135;-79
2021/09/24 08:11:05;;;;;;;;;;;;;;;14.03;58.95;101016.70;1722664;81;20097;-80
2021/09/24 08:13:32;;;;;;;;;;;;;;;14.02;59.25;101016.34;1712575;83;20571;-82
2021/09/24 08:16:31;;;;;;;;;;;;;;;;;;;;;
2021/09/24 08:19:21;;;;;;;;;;;;;;;14.03;59.88;100994.53;1658693;84;20461;-83
2021/09/24 08:21:50;;;;;;;;;;;;;;;14.07;59.99;100993.36;1655913;85;20261;-82
2021/09/24 08:24:17;;;;;;;;;;;;;;;14.07;60.11;100986.34;1666774;84;20114;-81
2021/09/24 08:26:47;;;;;;;;;;;;;;;14.12;60.48;100969.03;1657720;86;20165;-80
2021/09/24 08:29:15;;;;;;;;;;;;;;;14.15;60.86;100959.67;1658422;86;21100;-81
2021/09/24 08:31:46;;;;;;;;;;;;;;;14.20;61.34;100962.75;1651284;85;20200;-82
2021/09/24 08:34:14;;;;;;;;;;;;;;;14.28;61.32;100961.70;1659795;86;20110;-81
2021/09/24 08:36:41;;;;;;;;;;;;;;;14.38;60.49;100953.56;1636102;85;20188;-80
2021/09/24 08:39:08;;;;;;;;;;;;;;;14.51;60.93;100960.80;1649533;86;20100;-79
2021/09/24 08:41:35;;;;;;;;;;;;;;;14.65;60.25;100949.26;1641040;86;21114;-83
2021/09/24 08:44:02;;;;;;;;;;;;;;;14.76;59.46;100950.56;1642102;85;20110;-85
2021/09/24 08:46:28;;;;;;;;;;;;;;;14.83;59.05;100949.97;1646482;86;20154;-78
2021/09/24 08:49:26;;;;;;;;;;;;;;;14.92;57.21;100945.80;1650358;86;20157;-76
2021/09/24 08:51:56;;;;;;;;;;;;;;;14.95;55.36;100942.94;1661122;85;20153;-80
2021/09/24 08:54:23;;;;;;;;;;;;;;;14.98;55.69;100944.47;1715519;83;21808;-79
2021/09/24 08:56:49;;;;;;;;;;;;;;;15.01;54.59;100935.91;1712869;83;20093;-76
2021/09/24 08:59:21;;;;;;;;;;;;;;;15.00;53.54;100932.93;1730039;83;20439;-81
2021/09/24 09:02:01;;;;;;;;;;;;;;;14.95;54.14;100921.20;1727902;82;20158;-82
2021/09/24 09:04:37;;;;;;;;;;;;;;;14.96;54.28;100943.77;1730624;83;20113;-76
2021/09/24 09:07:07;;;;;;;;;;;;;;;14.99;54.90;100950.05;1757023;81;20181;-78
2021/09/24 09:09:39;;;;;;;;;;;;;;;14.99;53.68;100951.37;1744024;81;20557;-76
2021/09/24 09:12:16;;;;;;;;;;;;;;;14.98;54.09;100956.23;1726626;81;20437;-77
2021/09/24 09:15:11;;;;;;;;;;;;;;;14.97;54.68;100946.72;1750952;81;20142;-80
2021/09/24 09:17:42;;;;;;;;;;;;;;;15.02;54.83;100942.80;1753616;81;20122;-78
2021/09/24 09:20:17;;;;;;;;;;;;;;;15.16;55.41;100941.67;1748980;81;20153;-79
2021/09/24 09:22:49;;;;;;;;;;;;;;;15.29;53.79;100941.87;1751447;81;20169;-76
2021/09/24 09:25:27;;;;;;;;;;;;;;;15.37;53.80;100946.50;1749020;81;20111;-81
2021/09/24 09:27:55;;;;;;;;;;;;;;;15.46;53.53;100946.22;1749974;82;20119;-83
2021/09/24 09:30:23;;;;;;;;;;;;;;;15.49;53.83;100932.91;1750329;82;20134;-76
2021/09/24 09:33:03;;;;;;;;;;;;;;;15.54;53.40;100945.16;1749599;82;21209;-77
2021/09/24 09:35:32;;;;;;;;;;;;;;;15.49;53.08;100935.53;1750033;82;20075;-81
2021/09/24 09:37:58;;;;;;;;;;;;;;;15.45;53.81;100931.47;1725084;81;20090;-77
2021/09/24 09:40:26;;;;;;;;;;;;;;;15.45;54.10;100916.61;1730839;81;20322;-78
2021/09/24 09:42:57;;;;;;;;;;;;;;;15.58;54.06;100908.14;1759626;81;20468;-81
2021/09/24 09:45:24;;;;;;;;;;;;;;;15.65;53.59;100894.07;1749850;81;21451;-80
2021/09/24 09:47:57;;;;;;;;;;;;;;;15.64;54.40;100877.54;1744924;81;20083;-80
2021/09/24 09:50:26;;;;;;;;;;;;;;;15.65;54.16;100875.28;1751484;81;20094;-79
2021/09/24 09:53:07;;;;;;;;;;;;;;;15.62;54.23;100879.47;1751004;81;20134;-78
2021/09/24 09:55:40;;;;;;;;;;;;;;;15.61;54.31;100873.88;1752877;81;20153;-82
2021/09/24 09:58:10;;;;;;;;;;;;;;;15.69;54.88;100861.00;1736937;81;21479;-83
2021/09/24 10:01:03;;;;;;;;;;;;;;;15.72;55.06;100852.89;1721802;81;20102;-78
2021/09/24 10:03:33;;;;;;;;;;;;;;;15.79;55.46;100831.76;1754155;81;20780;-75
2021/09/24 10:05:59;;;;;;;;;;;;;;;15.85;54.93;100827.34;1739411;80;20199;-77
2021/09/24 10:08:32;;;;;;;;;;;;;;;15.86;55.35;100847.77;1749664;82;20174;-78
2021/09/24 10:11:06;;;;;;;;;;;;;;;15.93;55.87;100858.08;1749971;82;21050;-78
2021/09/24 10:13:35;;;;;;;;;;;;;;;16.01;56.29;100833.87;1749707;82;20111;-84
2021/09/24 10:16:04;;;;;;;;;;;;;;;16.13;56.76;100832.34;1749880;81;20098;-82
2021/09/24 10:18:31;;;;;;;;;;;;;;;16.27;55.14;100820.17;1749770;80;20169;-78
2021/09/24 10:20:58;;;;;;;;;;;;;;;16.41;54.06;100827.66;1751055;81;20537;-83
2021/09/24 10:23:25;;;;;;;;;;;;;;;16.52;52.63;100831.13;1749944;81;21066;-78
2021/09/24 10:25:56;;;;;;;;;;;;;;;16.64;53.19;100796.02;1749497;82;20464;-74
2021/09/24 10:28:27;;;;;;;;;;;;;;;16.69;52.53;100797.73;1749717;82;20122;-78
2021/09/24 10:30:55;;;;;;;;;;;;;;;16.73;52.88;100789.95;1749565;82;20154;-80
2021/09/24 10:33:22;;;;;;;;;;;;;;;16.80;52.34;100797.13;1750059;82;20086;-76
2021/09/24 10:35:51;;;;;;;;;;;;;;;16.82;52.37;100797.81;1747935;81;21135;-81
2021/09/24 10:38:21;;;;;;;;;;;;;;;16.83;51.58;100790.78;1748738;82;20094;-80
2021/09/24 10:41:04;;;;;;;;;;;;;;;16.84;51.94;100781.96;1752355;81;20096;-79
2021/09/24 10:43:48;;;;;;;;;;;;;;;16.85;52.02;100781.81;1734820;81;20170;-84
2021/09/24 10:46:29;;;;;;;;;;;;;;;16.87;52.15;100768.10;1757782;81;20415;-80
2021/09/24 10:49:19;;;;;;;;;;;;;;;16.93;52.35;100768.02;1746684;81;21112;-77
2021/09/24 10:52:00;;;;;;;;;;;;;;;17.01;51.62;100754.23;1750080;82;20186;-80
2021/09/24 10:54:26;;;;;;;;;;;;;;;17.10;50.53;100745.52;1750276;82;20206;-74
2021/09/24 10:57:04;;;;;;;;;;;;;;;17.17;50.00;100752.66;1750809;82;20195;-80
2021/09/24 10:59:33;;;;;;;;;;;;;;;17.23;50.22;100742.91;1751185;81;20102;-77
2021/09/24 11:02:20;;;;;;;;;;;;;;;17.25;49.75;100743.61;1750668;81;21538;-76
2021/09/24 11:04:51;;;;;;;;;;;;;;;17.24;48.35;100752.92;1754917;81;20102;-82
2021/09/24 11:07:31;;;;;;;;;;;;;;;17.22;48.17;100735.20;1755643;81;20091;-76
2021/09/24 11:09:57;;;;;;;;;;;;;;;17.21;47.91;100738.78;1751475;81;20095;-76
2021/09/24 11:12:28;;;;;;;;;;;;;;;17.21;48.51;100736.16;1749485;82;20151;-77
2021/09/24 11:15:13;;;;;;;;;;;;;;;17.23;48.76;100725.86;1749753;82;20161;-83
2021/09/24 11:17:46;;;;;;;;;;;;;;;17.28;48.06;100728.07;1750587;82;20500;-78
2021/09/24 11:20:35;;;;;;;;;;;;;;;17.32;47.45;100715.85;1750144;82;20147;-81
2021/09/24 11:23:34;;;;;;;;;;;;;;;17.31;47.14;100710.26;1749686;82;20524;-85
2021/09/24 11:26:10;;;;;;;;;;;;;;;17.29;47.98;100714.80;1747536;81;20443;-76
2021/09/24 11:28:38;;;;;;;;;;;;;;;17.31;48.62;100709.42;1749639;81;21139;-81
2021/09/24 11:31:07;;;;;;;;;;;;;;;17.35;49.03;100703.77;1753615;81;20083;-83
2021/09/24 11:33:40;;;;;;;;;;;;;;;17.35;48.91;100714.73;1750920;81;20086;-79
2021/09/24 11:36:09;;;;;;;;;;;;;;;17.28;47.58;100696.59;1751716;81;20136;-79
2021/09/24 11:38:36;;;;;;;;;;;;;;;17.25;47.04;100745.41;1749587;82;20177;-73
2021/09/24 11:41:04;;;;;;;;;;;;;;;17.18;46.68;100733.82;1749507;82;21948;-77
2021/09/24 11:43:35;;;;;;;;;;;;;;;17.17;47.00;100741.34;1716309;81;20129;-78
2021/09/24 11:46:13;;;;;;;;;;;;;;;17.14;46.94;100726.72;1744414;81;20153;-78
2021/09/24 11:48:41;;;;;;;;;;;;;;;17.08;46.74;100733.01;1747977;81;20107;-80
2021/09/24 11:51:16;;;;;;;;;;;;;;;17.02;47.31;100758.00;1734448;81;20099;-79
2021/09/24 11:53:46;;;;;;;;;;;;;;;17.03;47.41;100748.34;1752801;81;22012;-78
2021/09/24 11:56:12;;;;;;;;;;;;;;;17.01;46.83;100760.78;1755802;81;20519;-78
2021/09/24 11:58:39;;;;;;;;;;;;;;;16.94;45.91;100762.63;1728117;82;20143;-83
2021/09/24 12:01:07;;;;;;;;;;;;;;;16.89;46.35;100760.08;1749783;82;20095;-80
2021/09/24 12:03:35;;;;;;;;;;;;;;;16.83;45.87;100756.23;1702007;83;20132;-78
2021/09/24 12:06:04;;;;;;;;;;;;;;;16.76;45.72;100772.16;1735362;81;21190;-80
2021/09/24 12:08:48;;;;;;;;;;;;;;;16.65;46.14;100759.69;1751792;81;20185;-81
2021/09/24 12:11:18;;;;;;;;;;;;;;;16.50;47.78;100757.91;1752401;81;20433;-79
2021/09/24 12:13:50;;;;;;;;;;;;;;;16.30;48.63;100754.45;1749109;81;20134;-79
2021/09/24 12:16:21;;;;;;;;;;;;;;;16.17;48.40;100735.55;1745220;81;20083;-79
2021/09/24 12:19:01;;;;;;;;;;;;;;;16.17;48.52;100749.95;1751592;81;20709;-78
2021/09/24 12:21:37;;;;;;;;;;;;;;;16.15;48.07;100732.70;1748010;82;20167;-78
2021/09/24 12:24:11;;;;;;;;;;;;;;;16.11;48.43;100717.77;1733286;81;20087;-77
2021/09/24 12:26:41;;;;;;;;;;;;;;;16.12;48.57;100726.42;1739077;82;20183;-78
2021/09/24 12:29:10;;;;;;;;;;;;;;;16.18;48.68;100724.56;1750835;81;20098;-83
2021/09/24 12:31:45;;;;;;;;;;;;;;;16.25;49.13;100716.05;1752089;81;21130;-81
2021/09/24 12:34:20;;;;;;;;;;;;;;;16.30;49.00;100715.17;1749462;82;20541;-83
2021/09/24 12:37:03;;;;;;;;;;;;;;;16.38;49.12;100712.69;1749207;82;20139;-82
2021/09/24 12:39:31;;;;;;;;;;;;;;;16.44;49.40;100713.92;1750229;81;20224;-82
2021/09/24 12:42:04;;;;;;;;;;;;;;;16.50;49.63;100708.13;1749487;82;20098;-74
2021/09/24 12:44:30;;;;;;;;;;;;;;;16.51;48.49;100716.34;1747341;81;21121;-79
2021/09/24 12:46:58;;;;;;;;;;;;;;;16.54;48.45;100693.80;1750571;81;20094;-80
2021/09/24 12:49:25;;;;;;;;;;;;;;;16.51;47.99;100729.44;1746515;81;20127;-74
2021/09/24 12:51:52;;;;;;;;;;;;;;;16.51;48.28;100743.85;1749372;82;20205;-78